.
WxDataArchive / Data Records for 2010-03-05
2010-03-04 March 2010 2010-03-06

Data Records for Friday, 05 March 2010

Time	Temp	Chill	HIndex	Humid	Dewpt	 Wind 	HiWind	WindDir	Rain 	Barom 
-----	----	-----	------	-----	-----	------	------	-------	-----	----- 
00:00	27.6	27.6	27.6	66	17.8	0	0	---	0.00	30.199 
00:05	27.3	27.3	27.3	67	17.8	0	0	---	0.00	30.199 
00:10	27.2	27.2	27.2	68	18.1	0	0	---	0.00	30.199 
00:15	27.0	27.0	27.0	69	18.2	0	0	---	0.00	30.205 
00:20	26.9	26.9	26.9	69	18.1	0	0	---	0.00	30.205 
00:25	26.7	26.7	26.7	70	18.3	0	0	---	0.00	30.205 
00:30	26.6	26.6	26.6	71	18.5	0	0	---	0.00	30.208 
00:35	26.4	26.4	26.4	72	18.6	0	0	---	0.00	30.208 
00:40	26.1	26.1	26.1	72	18.3	0	0	---	0.00	30.208 
00:45	26.0	26.0	26.0	73	18.6	0	0	---	0.00	30.211 
00:50	26.0	26.0	26.0	74	18.9	0	0	---	0.00	30.211 
00:55	25.8	25.8	25.8	74	18.7	0	0	---	0.00	30.211 
01:00	25.8	25.8	25.8	75	19.0	0	0	---	0.00	30.212 
01:05	25.8	25.8	25.8	76	19.3	0	0	---	0.00	30.212 
01:10	25.8	25.8	25.8	77	19.6	0	0	---	0.00	30.212 
01:15	25.8	25.8	25.8	77	19.6	0	0	---	0.00	30.217 
01:20	25.7	25.7	25.7	77	19.5	0	0	---	0.00	30.217 
01:25	25.7	25.7	25.7	78	19.8	0	0	---	0.00	30.217 
01:30	25.7	25.7	25.7	78	19.8	0	0	---	0.00	30.224 
01:35	25.7	25.7	25.7	79	20.1	0	0	---	0.00	30.224 
01:40	25.7	25.7	25.7	79	20.1	0	0	---	0.00	30.224 
01:45	25.7	25.7	25.7	80	20.4	0	0	---	0.00	30.225 
01:50	25.7	25.7	25.7	80	20.4	0	0	---	0.00	30.225 
01:55	25.6	25.6	25.6	80	20.3	0	0	---	0.00	30.225 
02:00	25.4	25.4	25.4	80	20.1	0	0	---	0.00	30.230 
02:05	25.3	25.3	25.3	80	20.0	0	0	---	0.00	30.230 
02:10	25.1	25.1	25.1	80	19.8	0	0	---	0.00	30.230 
02:15	24.8	24.8	24.8	81	19.8	0	0	---	0.00	30.231 
02:20	24.7	24.7	24.7	81	19.7	0	0	---	0.00	30.231 
02:25	24.5	24.5	24.5	81	19.5	0	0	---	0.00	30.231 
02:30	24.4	24.4	24.4	82	19.7	0	0	---	0.00	30.234 
02:35	24.2	24.2	24.2	82	19.5	0	0	---	0.00	30.234 
02:40	24.1	24.1	24.1	82	19.4	0	0	---	0.00	30.234 
02:45	23.9	23.9	23.9	83	19.5	0	0	---	0.00	30.237 
02:50	23.8	23.8	23.8	83	19.4	0	0	---	0.00	30.237 
02:55	23.6	23.6	23.6	83	19.2	0	0	---	0.00	30.237 
03:00	23.5	23.5	23.5	83	19.1	0	0	---	0.00	30.235 
03:05	23.2	23.2	23.2	83	18.8	0	0	---	0.00	30.235 
03:10	23.0	23.0	23.0	84	18.9	0	0	---	0.00	30.235 
03:15	22.9	22.9	22.9	84	18.8	0	0	---	0.00	30.240 
03:20	22.5	22.5	22.5	84	18.4	0	0	---	0.00	30.240 
03:25	22.5	22.5	22.5	85	18.7	0	0	---	0.00	30.240 
03:30	22.5	22.5	22.5	85	18.7	0	0	---	0.00	30.244 
03:35	22.5	22.5	22.5	85	18.7	0	0	---	0.00	30.244 
03:40	22.4	22.4	22.4	85	18.6	0	0	---	0.00	30.244 
03:45	22.2	22.2	22.2	85	18.4	0	0	---	0.00	30.251 
03:50	22.1	22.1	22.1	85	18.3	0	0	---	0.00	30.251 
03:55	22.1	22.1	22.1	85	18.3	0	0	---	0.00	30.251 
04:00	21.9	21.9	21.9	85	18.1	0	0	---	0.00	30.257 
04:05	21.8	21.8	21.8	85	18.0	0	0	---	0.00	30.257 
04:10	21.6	21.6	21.6	85	17.8	0	0	---	0.00	30.257 
04:15	21.3	21.3	21.3	85	17.5	0	0	---	0.00	30.256 
04:20	21.1	21.1	21.1	85	17.3	0	0	---	0.00	30.256 
04:25	21.1	21.1	21.1	86	17.6	0	0	---	0.00	30.256 
04:30	21.1	21.1	21.1	86	17.6	0	0	---	0.00	30.260 
04:35	21.4	21.4	21.4	86	17.9	0	1	292	0.00	30.260 
04:40	21.9	21.9	21.9	85	18.1	0	1	292	0.00	30.260 
04:45	22.5	22.5	22.5	84	18.4	0	1	292	0.00	30.262 
04:50	23.0	23.0	23.0	83	18.6	0	1	292	0.00	30.262 
04:55	23.5	23.5	23.5	82	18.8	0	1	292	0.00	30.262 
05:00	23.6	23.6	23.6	81	18.6	0	1	292	0.00	30.264 
05:05	23.8	23.8	23.8	81	18.8	0	0	---	0.00	30.264 
05:10	23.6	23.6	23.6	81	18.6	0	0	---	0.00	30.264 
05:15	23.5	23.5	23.5	81	18.5	0	0	---	0.00	30.273 
05:20	23.2	23.2	23.2	81	18.3	0	0	---	0.00	30.273 
05:25	22.9	22.9	22.9	81	18.0	0	0	---	0.00	30.273 
05:30	22.7	22.7	22.7	81	17.8	0	0	---	0.00	30.278 
05:35	22.4	22.4	22.4	81	17.5	0	0	---	0.00	30.278 
05:40	22.1	22.1	22.1	81	17.2	0	0	---	0.00	30.278 
05:45	21.8	21.8	21.8	81	16.9	0	0	---	0.00	30.288 
05:50	21.6	21.6	21.6	81	16.7	0	0	---	0.00	30.288 
05:55	21.3	21.3	21.3	82	16.7	0	0	---	0.00	30.288 
06:00	21.0	21.0	21.0	82	16.4	0	0	---	0.00	30.292 
06:05	20.6	20.6	20.6	82	16.0	0	0	---	0.00	30.292 
06:10	20.5	20.5	20.5	82	15.9	0	0	---	0.00	30.292 
06:15	20.3	20.3	20.3	83	16.0	0	0	---	0.00	30.300 
06:20	20.2	20.2	20.2	83	15.9	0	0	---	0.00	30.300 
06:25	20.0	20.0	20.0	83	15.7	0	0	---	0.00	30.300 
06:30	19.7	19.7	19.7	83	15.4	0	0	---	0.00	30.305 
06:35	19.5	19.5	19.5	83	15.2	0	0	---	0.00	30.305 
06:40	19.4	19.4	19.4	84	15.4	0	0	---	0.00	30.305 
06:45	19.2	19.2	19.2	84	15.2	0	0	---	0.00	30.314 
06:50	19.2	19.2	19.2	84	15.2	0	0	---	0.00	30.314 
06:55	19.1	19.1	19.1	84	15.1	0	0	---	0.00	30.314 
07:00	18.9	18.9	18.9	85	15.2	0	0	---	0.00	30.317 
07:05	18.9	18.9	18.9	85	15.2	0	0	---	0.00	30.317 
07:10	18.8	18.8	18.8	85	15.1	0	0	---	0.00	30.317 
07:15	18.6	18.6	18.6	85	14.9	0	0	---	0.00	30.323 
07:20	18.6	18.6	18.6	85	14.9	0	0	---	0.00	30.323 
07:25	18.4	18.4	18.4	86	14.9	0	0	---	0.00	30.323 
07:30	18.4	18.4	18.4	86	14.9	0	0	---	0.00	30.330 
07:35	18.8	18.8	18.8	86	15.3	0	0	---	0.00	30.330 
07:40	19.1	19.1	19.1	87	15.9	0	0	---	0.00	30.330 
07:45	19.4	19.4	19.4	87	16.2	0	0	---	0.00	30.334 
07:50	19.9	19.9	19.9	88	16.9	0	0	---	0.00	30.334 
07:55	20.5	20.5	20.5	88	17.5	0	0	---	0.00	30.334 
08:00	21.0	21.0	21.0	88	18.0	0	0	---	0.00	30.334 
08:05	21.4	21.4	21.4	88	18.4	0	0	---	0.00	30.334 
08:10	22.1	22.1	22.1	88	19.1	0	0	---	0.00	30.334 
08:15	23.0	23.0	23.0	88	20.0	0	0	---	0.00	30.339 
08:20	23.9	23.9	23.9	88	20.9	0	0	---	0.00	30.339 
08:25	25.0	25.0	25.0	87	21.7	0	0	---	0.00	30.339 
08:30	26.1	26.1	26.1	84	21.9	0	1	292	0.00	30.343 
08:35	27.0	27.0	27.0	82	22.3	0	1	292	0.00	30.343 
08:40	27.6	27.6	27.6	82	22.8	0	1	292	0.00	30.343 
08:45	28.5	28.5	28.5	80	23.1	0	2	292	0.00	30.345 
08:50	29.1	29.1	29.1	79	23.4	1	3	292	0.00	30.345 
08:55	29.7	29.7	29.7	77	23.4	1	3	292	0.00	30.345 
09:00	30.3	30.3	30.3	77	24.0	1	4	90	0.00	30.346 
09:05	30.6	30.6	30.6	75	23.6	2	4	90	0.00	30.346 
09:10	30.9	30.9	30.9	74	23.6	2	4	90	0.00	30.346 
09:15	31.2	31.2	31.2	73	23.6	1	3	90	0.00	30.351 
09:20	31.6	31.6	31.6	73	24.0	1	3	90	0.00	30.351 
09:25	32.1	32.1	32.1	71	23.8	1	3	90	0.00	30.351 
09:30	32.5	32.5	32.5	71	24.2	1	3	90	0.00	30.357 
09:35	32.9	32.9	32.9	70	24.2	1	4	90	0.00	30.357 
09:40	33.2	33.2	33.2	69	24.2	1	3	90	0.00	30.357 
09:45	33.5	33.5	33.5	68	24.1	2	4	90	0.00	30.359 
09:50	33.8	33.8	33.8	68	24.4	1	4	90	0.00	30.359 
09:55	33.8	33.8	33.8	66	23.7	2	4	112	0.00	30.359 
10:00	34.1	34.1	34.1	65	23.6	3	6	90	0.00	30.367 
10:05	34.0	34.0	34.0	64	23.1	2	5	90	0.00	30.367 
10:10	34.3	34.3	34.3	66	24.1	2	5	112	0.00	30.367 
10:15	34.9	34.9	34.9	66	24.7	1	4	90	0.00	30.371 
10:20	35.6	35.6	35.6	65	25.0	1	4	90	0.00	30.371 
10:25	35.8	35.8	35.8	66	25.6	1	4	90	0.00	30.371 
10:30	35.6	35.6	35.6	65	25.0	3	5	90	0.00	30.372 
10:35	35.6	35.6	35.6	64	24.6	1	5	112	0.00	30.372 
10:40	35.8	35.8	35.8	65	25.2	0	2	90	0.00	30.372 
10:45	36.0	36.0	36.0	64	25.0	2	5	112	0.00	30.373 
10:50	36.3	36.3	36.3	62	24.5	1	5	90	0.00	30.373 
10:55	36.0	36.0	36.0	64	25.0	2	6	90	0.00	30.373 
11:00	36.3	36.3	36.3	64	25.3	2	4	112	0.00	30.375 
11:05	36.5	36.5	36.5	63	25.1	0	2	68	0.00	30.375 
11:10	36.9	36.9	36.9	62	25.1	1	5	90	0.00	30.375 
11:15	37.0	37.0	37.0	62	25.2	2	6	112	0.00	30.376 
11:20	36.9	36.9	36.9	62	25.1	1	4	90	0.00	30.376 
11:25	37.0	37.0	37.0	59	24.0	2	6	90	0.00	30.376 
11:30	36.9	36.9	36.9	61	24.7	1	4	112	0.00	30.376 
11:35	37.2	37.2	37.2	62	25.4	0	2	112	0.00	30.376 
11:40	37.3	37.3	37.3	61	25.1	0	2	292	0.00	30.376 
11:45	37.9	37.9	37.9	62	26.1	0	3	45	0.00	30.372 
11:50	38.2	38.2	38.2	60	25.6	1	5	45	0.00	30.372 
11:55	38.3	38.3	38.3	59	25.2	1	5	315	0.00	30.372 
12:00	38.3	38.3	38.3	60	25.6	1	4	90	0.00	30.373 
12:05	38.5	38.5	38.5	59	25.4	1	3	90	0.00	30.373 
12:10	38.8	38.8	38.8	58	25.3	0	2	45	0.00	30.373 
12:15	39.2	39.2	39.2	59	26.1	0	2	45	0.00	30.373 
12:20	39.3	39.3	39.3	56	24.9	1	4	90	0.00	30.373 
12:25	38.8	38.8	38.8	56	24.5	1	5	90	0.00	30.373 
12:30	38.5	38.5	38.5	56	24.2	0	2	90	0.00	30.371 
12:35	38.5	38.5	38.5	57	24.6	2	5	112	0.00	30.371 
12:40	38.6	38.6	38.6	57	24.7	1	2	112	0.00	30.371 
12:45	38.8	38.8	38.8	59	25.7	1	4	112	0.00	30.370 
12:50	39.5	39.5	39.5	59	26.4	2	6	112	0.00	30.370 
12:55	39.9	39.9	39.9	58	26.3	1	3	22	0.00	30.370 
13:00	40.1	40.1	40.1	55	25.2	0	2	22	0.00	30.367 
13:05	39.9	39.9	39.9	53	24.2	1	3	270	0.00	30.367 
13:10	39.9	39.9	39.9	54	24.6	1	4	338	0.00	30.367 
13:15	39.8	39.8	39.8	54	24.5	1	6	112	0.00	30.360 
13:20	39.8	39.8	39.8	56	25.4	2	5	112	0.00	30.360 
13:25	40.1	40.1	40.1	55	25.2	1	4	90	0.00	30.360 
13:30	40.2	40.2	40.2	53	24.5	0	2	68	0.00	30.357 
13:35	40.5	40.5	40.5	55	25.6	1	4	90	0.00	30.357 
13:40	40.1	40.1	40.1	51	23.4	3	9	112	0.00	30.357 
13:45	39.2	39.2	39.2	54	24.0	1	5	112	0.00	30.356 
13:50	39.2	39.2	39.2	54	24.0	0	2	112	0.00	30.356 
13:55	39.8	39.8	39.8	55	25.0	0	2	112	0.00	30.356 
14:00	40.2	40.2	40.2	53	24.5	1	4	112	0.00	30.355 
14:05	40.2	40.2	40.2	52	24.0	2	5	90	0.00	30.355 
14:10	40.5	40.5	40.5	53	24.7	0	2	90	0.00	30.355 
14:15	41.1	41.1	41.1	53	25.3	0	2	90	0.00	30.354 
14:20	41.2	41.2	41.2	52	24.9	1	5	112	0.00	30.354 
14:25	40.6	40.6	40.6	52	24.4	1	4	90	0.00	30.354 
14:30	40.3	40.3	40.3	52	24.1	1	5	112	0.00	30.354 
14:35	39.9	39.9	39.9	51	23.3	2	4	112	0.00	30.354 
14:40	40.1	40.1	40.1	52	23.9	1	3	112	0.00	30.354 
14:45	40.5	40.5	40.5	50	23.3	1	4	112	0.00	30.355 
14:50	40.6	40.6	40.6	50	23.4	0	3	112	0.00	30.355 
14:55	40.9	40.9	40.9	48	22.7	1	4	292	0.00	30.355 
15:00	41.2	41.2	41.2	50	24.0	1	7	68	0.00	30.354 
15:05	41.1	41.1	41.1	50	23.9	2	5	112	0.00	30.354 
15:10	40.9	40.9	40.9	49	23.2	2	5	90	0.00	30.354 
15:15	41.2	41.2	41.2	48	23.0	1	3	90	0.00	30.357 
15:20	41.5	41.5	41.5	46	22.3	1	5	68	0.00	30.357 
15:25	41.1	41.1	41.1	47	22.4	1	4	90	0.00	30.357 
15:30	40.6	40.6	40.6	47	22.0	0	3	90	0.00	30.357 
15:35	40.2	40.2	40.2	48	22.1	1	3	90	0.00	30.357 
15:40	40.3	40.3	40.3	49	22.7	0	1	90	0.00	30.357 
15:45	40.8	40.8	40.8	48	22.6	1	6	90	0.00	30.357 
15:50	41.1	41.1	41.1	48	22.9	2	5	90	0.00	30.357 
15:55	41.1	41.1	41.1	46	21.9	3	7	112	0.00	30.357 
16:00	40.9	40.9	40.9	49	23.2	1	4	90	0.00	30.357 
16:05	40.9	40.9	40.9	48	22.7	0	3	45	0.00	30.357 
16:10	40.9	40.9	40.9	48	22.7	0	2	45	0.00	30.357 
16:15	40.6	40.6	40.6	47	22.0	0	2	45	0.00	30.356 
16:20	40.8	40.8	40.8	47	22.1	0	2	45	0.00	30.356 
16:25	40.8	40.8	40.8	46	21.6	0	1	270	0.00	30.356 
16:30	40.8	40.8	40.8	48	22.6	0	2	292	0.00	30.355 
16:35	40.6	40.6	40.6	46	21.5	0	2	292	0.00	30.355 
16:40	40.8	40.8	40.8	48	22.6	0	1	292	0.00	30.355 
16:45	40.9	40.9	40.9	47	22.2	0	2	292	0.00	30.355 
16:50	40.9	40.9	40.9	46	21.7	0	1	292	0.00	30.355 
16:55	40.8	40.8	40.8	46	21.6	1	5	292	0.00	30.355 
17:00	40.5	40.5	40.5	46	21.4	0	2	68	0.00	30.355 
17:05	40.3	40.3	40.3	46	21.2	0	2	270	0.00	30.355 
17:10	40.3	40.3	40.3	46	21.2	0	1	270	0.00	30.355 
17:15	40.3	40.3	40.3	48	22.2	0	2	292	0.00	30.360 
17:20	40.2	40.2	40.2	46	21.1	0	1	292	0.00	30.360 
17:25	40.2	40.2	40.2	48	22.1	0	2	292	0.00	30.360 
17:30	40.1	40.1	40.1	47	21.5	0	2	292	0.00	30.360 
17:35	39.9	39.9	39.9	48	21.8	1	4	112	0.00	30.360 
17:40	39.6	39.6	39.6	48	21.5	1	3	112	0.00	30.360 
17:45	39.6	39.6	39.6	47	21.0	1	3	112	0.00	30.360 
17:50	39.5	39.5	39.5	47	21.0	1	4	112	0.00	30.360 
17:55	39.3	39.3	39.3	47	20.8	1	2	112	0.00	30.360 
18:00	39.2	39.2	39.2	48	21.2	0	2	112	0.00	30.361 
18:05	39.1	39.1	39.1	48	21.1	0	2	112	0.00	30.361 
18:10	38.8	38.8	38.8	47	20.3	0	0	---	0.00	30.361 
18:15	38.6	38.6	38.6	48	20.6	0	1	112	0.00	30.366 
18:20	38.3	38.3	38.3	49	20.8	0	1	112	0.00	30.366 
18:25	38.0	38.0	38.0	49	20.6	0	2	112	0.00	30.366 
18:30	37.8	37.8	37.8	50	20.8	0	0	---	0.00	30.369 
18:35	37.5	37.5	37.5	50	20.6	0	0	---	0.00	30.369 
18:40	37.0	37.0	37.0	50	20.1	0	0	---	0.00	30.369 
18:45	36.6	36.6	36.6	51	20.2	0	0	---	0.00	30.371 
18:50	36.2	36.2	36.2	51	19.8	0	0	---	0.00	30.371 
18:55	35.8	35.8	35.8	52	19.9	0	0	---	0.00	30.371 
19:00	35.3	35.3	35.3	54	20.3	0	0	---	0.00	30.376 
19:05	34.9	34.9	34.9	54	20.0	0	0	---	0.00	30.376 
19:10	34.4	34.4	34.4	55	19.9	0	0	---	0.00	30.376 
19:15	34.1	34.1	34.1	56	20.1	0	0	---	0.00	30.379 
19:20	34.0	34.0	34.0	57	20.4	0	0	---	0.00	30.379 
19:25	33.7	33.7	33.7	57	20.1	0	0	---	0.00	30.379 
19:30	33.4	33.4	33.4	57	19.8	0	0	---	0.00	30.380 
19:35	33.1	33.1	33.1	58	20.0	0	0	---	0.00	30.380 
19:40	32.7	32.7	32.7	58	19.6	0	0	---	0.00	30.380 
19:45	32.4	32.4	32.4	59	19.7	0	0	---	0.00	30.380 
19:50	32.1	32.1	32.1	59	19.4	0	0	---	0.00	30.380 
19:55	31.8	31.8	31.8	60	19.5	0	0	---	0.00	30.380 
20:00	31.5	31.5	31.5	61	19.6	0	0	---	0.00	30.382 
20:05	31.3	31.3	31.3	61	19.4	0	0	---	0.00	30.382 
20:10	31.2	31.2	31.2	62	19.7	0	0	---	0.00	30.382 
20:15	30.9	30.9	30.9	62	19.4	0	0	---	0.00	30.374 
20:20	30.6	30.6	30.6	62	19.2	0	0	---	0.00	30.374 
20:25	30.4	30.4	30.4	63	19.3	0	0	---	0.00	30.374 
20:30	30.1	30.1	30.1	63	19.0	0	0	---	0.00	30.376 
20:35	29.8	29.8	29.8	64	19.1	0	0	---	0.00	30.376 
20:40	29.7	29.7	29.7	65	19.4	0	0	---	0.00	30.376 
20:45	29.4	29.4	29.4	65	19.1	0	0	---	0.00	30.377 
20:50	29.1	29.1	29.1	65	18.8	0	0	---	0.00	30.377 
20:55	29.0	29.0	29.0	66	19.1	0	0	---	0.00	30.377 
21:00	28.8	28.8	28.8	66	18.9	0	0	---	0.00	30.379 
21:05	28.7	28.7	28.7	66	18.8	0	0	---	0.00	30.379 
21:10	28.5	28.5	28.5	66	18.6	0	0	---	0.00	30.379 
21:15	28.2	28.2	28.2	66	18.3	0	0	---	0.00	30.378 
21:20	28.2	28.2	28.2	67	18.7	0	0	---	0.00	30.378 
21:25	28.1	28.1	28.1	67	18.6	0	0	---	0.00	30.378 
21:30	27.9	27.9	27.9	68	18.7	0	0	---	0.00	30.380 
21:35	27.8	27.8	27.8	68	18.6	0	0	---	0.00	30.380 
21:40	27.8	27.8	27.8	68	18.6	0	0	---	0.00	30.380 
21:45	27.6	27.6	27.6	68	18.4	0	0	---	0.00	30.384 
21:50	27.6	27.6	27.6	68	18.4	0	0	---	0.00	30.384 
21:55	27.5	27.5	27.5	68	18.3	0	0	---	0.00	30.384 
22:00	27.2	27.2	27.2	69	18.4	0	0	---	0.00	30.389 
22:05	27.0	27.0	27.0	69	18.2	0	0	---	0.00	30.389 
22:10	27.0	27.0	27.0	70	18.5	0	0	---	0.00	30.389 
22:15	26.9	26.9	26.9	70	18.4	0	0	---	0.00	30.389 
22:20	26.6	26.6	26.6	70	18.2	0	0	---	0.00	30.389 
22:25	26.4	26.4	26.4	70	18.0	0	0	---	0.00	30.389 
22:30	26.3	26.3	26.3	71	18.2	0	0	---	0.00	30.389 
22:35	26.0	26.0	26.0	71	17.9	0	0	---	0.00	30.389 
22:40	25.7	25.7	25.7	72	17.9	0	0	---	0.00	30.389 
22:45	25.6	25.6	25.6	72	17.8	0	0	---	0.00	30.391 
22:50	25.4	25.4	25.4	73	18.0	0	0	---	0.00	30.391 
22:55	25.4	25.4	25.4	74	18.3	0	0	---	0.00	30.391 
23:00	25.4	25.4	25.4	74	18.3	0	0	---	0.00	30.394 
23:05	25.3	25.3	25.3	74	18.2	0	0	---	0.00	30.394 
23:10	25.1	25.1	25.1	74	18.0	0	0	---	0.00	30.394 
23:15	24.8	24.8	24.8	75	18.0	0	0	---	0.00	30.390 
23:20	24.8	24.8	24.8	75	18.0	0	0	---	0.00	30.390 
23:25	24.7	24.7	24.7	76	18.2	0	0	---	0.00	30.390 
23:30	24.7	24.7	24.7	77	18.5	0	0	---	0.00	30.389 
23:35	24.7	24.7	24.7	77	18.5	0	0	---	0.00	30.389 
23:40	24.7	24.7	24.7	77	18.5	0	0	---	0.00	30.389 
23:45	24.7	24.7	24.7	77	18.5	0	0	---	0.00	30.389 
23:50	24.5	24.5	24.5	77	18.3	0	0	---	0.00	30.389 
23:55	24.4	24.4	24.4	77	18.2	0	0	---	0.00	30.389 

CoCoRaHS
IN-AL-39
A2 Web Hosting
Creative Commons License
GoDaddy
search engine by freefind advanced

loaded 2018-11-19 11:10:28 • last modified 2010-11-18 10:43:29
Privacy PolicyDisclaimer
• wx.awcolley.com is powered by PmWiki v.2002016 •
• all content (unless otherwise noted) © 2018 A W Colley